Time;durP1;ratioP1;P1;durP2;ratioP2;P2;SDS_P1;SDS_P2;PMS_P1;PMS_P2;Temp;Humidity;BMP_temperature;BMP_pressure;BME280_temperature;BME280_humidity;BME280_pressure;Samples;Min_cycle;Max_cycle;Signal;HPM_P1;HPM_P2
2021/10/19 00:00:00;;;;;;;24.37;18.80;;;13.80;99.90;;;;;;4954874;28;20198;-90
2021/10/19 00:02:29;;;;;;;24.17;17.97;;;13.70;99.90;;;;;;4959944;28;20213;-93
2021/10/19 00:04:57;;;;;;;23.80;19.40;;;13.70;99.90;;;;;;4973431;28;20283;-91
2021/10/19 00:07:25;;;;;;;22.83;19.17;;;13.80;99.90;;;;;;4972193;28;20215;-92
2021/10/19 00:09:52;;;;;;;26.95;20.80;;;13.80;99.90;;;;;;4973515;28;20219;-93
2021/10/19 00:12:18;;;;;;;21.70;18.97;;;13.80;99.90;;;;;;4973706;28;20215;-90
2021/10/19 00:14:45;;;;;;;26.73;19.70;;;13.80;99.90;;;;;;4973747;28;20557;-89
2021/10/19 00:17:12;;;;;;;22.63;18.23;;;13.80;99.90;;;;;;4961699;28;20612;-91
2021/10/19 00:19:39;;;;;;;23.27;20.73;;;13.80;99.90;;;;;;4952465;28;20585;-91
2021/10/19 00:22:08;;;;;;;24.53;20.43;;;13.80;99.90;;;;;;4952757;28;20264;-91
2021/10/19 00:24:34;;;;;;;21.20;18.30;;;13.80;99.90;;;;;;4953568;29;20216;-91
2021/10/19 00:27:02;;;;;;;22.83;18.93;;;13.90;99.90;;;;;;4953791;28;20212;-89
2021/10/19 00:29:29;;;;;;;23.57;19.07;;;13.90;99.90;;;;;;4954304;28;20247;-91
2021/10/19 00:31:56;;;;;;;22.50;18.97;;;13.90;99.90;;;;;;4954468;29;20224;-91
2021/10/19 00:34:23;;;;;;;23.33;19.10;;;13.90;99.90;;;;;;4955025;28;20213;-94
2021/10/19 00:36:50;;;;;;;25.83;20.20;;;13.90;99.90;;;;;;4952435;28;20298;-90
2021/10/19 00:39:18;;;;;;;23.00;19.07;;;13.90;99.90;;;;;;4952276;29;20337;-90
2021/10/19 00:41:45;;;;;;;24.08;19.75;;;13.90;99.90;;;;;;4952639;28;20209;-87
2021/10/19 00:44:12;;;;;;;26.67;20.90;;;14.00;99.90;;;;;;4965188;28;20208;-88
2021/10/19 00:46:40;;;;;;;24.23;20.50;;;14.00;99.90;;;;;;4974355;28;20291;-89
2021/10/19 00:49:07;;;;;;;24.47;19.70;;;14.00;99.90;;;;;;4970199;28;20237;-90
2021/10/19 00:51:35;;;;;;;25.90;19.63;;;14.10;99.90;;;;;;4953594;29;20205;-89
2021/10/19 00:54:02;;;;;;;24.17;20.80;;;14.10;99.90;;;;;;4952826;28;20202;-88
2021/10/19 00:56:30;;;;;;;30.10;22.07;;;14.10;99.90;;;;;;4953103;28;20591;-89
2021/10/19 00:58:57;;;;;;;25.13;20.60;;;14.10;99.90;;;;;;4953187;29;20221;-91
2021/10/19 01:01:25;;;;;;;25.57;20.53;;;14.10;99.90;;;;;;4954330;29;20216;-90
2021/10/19 01:03:52;;;;;;;26.52;21.38;;;14.00;99.90;;;;;;4953777;29;20220;-90
2021/10/19 01:06:18;;;;;;;28.97;21.50;;;14.00;99.90;;;;;;4962245;28;20553;-89
2021/10/19 01:08:46;;;;;;;26.10;21.03;;;14.00;99.90;;;;;;4972738;28;20602;-88
2021/10/19 01:11:13;;;;;;;25.13;21.25;;;14.00;99.90;;;;;;4972834;28;20219;-88
2021/10/19 01:13:41;;;;;;;25.93;21.57;;;14.00;99.90;;;;;;4963868;28;20209;-88
2021/10/19 01:16:10;;;;;;;26.83;21.33;;;14.10;99.90;;;;;;4950822;28;20217;-90
2021/10/19 01:18:38;;;;;;;27.17;21.85;;;14.00;99.90;;;;;;4954397;28;20233;-88
2021/10/19 01:21:07;;;;;;;27.40;21.73;;;14.00;99.90;;;;;;4956616;28;20211;-93
2021/10/19 01:23:35;;;;;;;30.60;22.23;;;14.00;99.90;;;;;;4953707;28;20206;-90
2021/10/19 01:26:03;;;;;;;27.88;22.45;;;14.00;99.90;;;;;;4953553;28;20216;-90
2021/10/19 01:28:31;;;;;;;26.98;21.63;;;14.00;99.90;;;;;;4953801;28;20241;-88
2021/10/19 01:31:00;;;;;;;29.27;23.20;;;14.00;99.90;;;;;;4953180;29;20202;-92
2021/10/19 01:33:28;;;;;;;28.80;21.97;;;14.10;99.90;;;;;;4952935;28;20206;-91
2021/10/19 01:35:56;;;;;;;29.07;22.70;;;14.10;99.90;;;;;;4953422;29;20212;-87
2021/10/19 01:38:26;;;;;;;29.37;23.10;;;14.10;99.90;;;;;;4962659;28;20239;-91
2021/10/19 01:40:54;;;;;;;32.00;22.13;;;14.10;99.90;;;;;;4976482;28;20211;-92
2021/10/19 01:43:22;;;;;;;28.13;22.88;;;14.10;99.90;;;;;;4975946;28;20207;-90
2021/10/19 01:45:50;;;;;;;30.27;24.10;;;14.10;99.90;;;;;;4961667;28;20221;-92
2021/10/19 01:48:18;;;;;;;28.50;22.70;;;14.10;99.90;;;;;;4953100;29;20597;-91
2021/10/19 01:50:45;;;;;;;27.42;22.35;;;14.20;99.90;;;;;;4952707;28;20220;-90
2021/10/19 01:53:13;;;;;;;28.07;22.80;;;14.20;99.90;;;;;;4953433;29;20212;-90
2021/10/19 01:55:42;;;;;;;28.83;21.73;;;14.20;99.90;;;;;;4955850;29;20208;-89
2021/10/19 01:58:11;;;;;;;28.23;21.43;;;14.20;99.90;;;;;;4975382;28;20240;-89
2021/10/19 02:00:39;;;;;;;29.50;22.27;;;14.20;99.90;;;;;;4976317;28;20276;-91
2021/10/19 02:03:06;;;;;;;25.20;20.93;;;14.20;99.90;;;;;;4974876;28;20204;-89
2021/10/19 02:05:33;;;;;;;27.38;22.40;;;14.20;99.90;;;;;;4958961;28;20241;-89
2021/10/19 02:08:03;;;;;;;27.80;21.50;;;14.20;99.90;;;;;;4956487;29;20594;-89
2021/10/19 02:10:30;;;;;;;28.40;23.33;;;14.30;99.90;;;;;;4956263;28;20598;-88
2021/10/19 02:12:58;;;;;;;28.13;22.40;;;14.30;99.90;;;;;;4955465;29;20197;-88
2021/10/19 02:15:26;;;;;;;29.17;24.75;;;14.30;99.90;;;;;;4953713;29;20212;-90
2021/10/19 02:17:53;;;;;;;29.60;24.60;;;14.40;99.90;;;;;;4956968;28;20237;-89
2021/10/19 02:20:20;;;;;;;31.10;26.13;;;14.40;99.90;;;;;;4956623;28;20244;-90
2021/10/19 02:22:46;;;;;;;29.63;25.92;;;14.40;99.90;;;;;;4956546;28;20193;-89
2021/10/19 02:25:13;;;;;;;28.80;24.30;;;14.40;99.90;;;;;;4956546;29;20205;-89
2021/10/19 02:27:40;;;;;;;29.17;24.05;;;14.40;99.90;;;;;;4956810;29;20205;-90
2021/10/19 02:30:10;;;;;;;31.33;27.50;;;14.40;99.90;;;;;;4956362;28;20201;-90
2021/10/19 02:32:39;;;;;;;33.28;27.80;;;14.40;99.90;;;;;;4956193;29;20213;-89
2021/10/19 02:35:07;;;;;;;31.27;26.83;;;14.40;99.90;;;;;;4955634;28;20951;-89
2021/10/19 02:37:34;;;;;;;32.80;27.92;;;14.40;99.90;;;;;;4956665;28;20224;-90
2021/10/19 02:40:01;;;;;;;32.60;27.48;;;14.40;99.90;;;;;;4955897;28;20710;-89
2021/10/19 02:42:28;;;;;;;33.33;28.13;;;14.50;99.90;;;;;;4957035;28;20208;-89
2021/10/19 02:44:55;;;;;;;35.15;28.58;;;14.40;99.90;;;;;;4955167;28;20296;-91
2021/10/19 02:47:23;;;;;;;33.37;29.00;;;14.40;99.90;;;;;;4959765;29;20205;-90
2021/10/19 02:49:50;;;;;;;32.47;28.27;;;14.50;99.90;;;;;;4961722;28;20236;-89
2021/10/19 02:52:17;;;;;;;35.70;30.08;;;14.50;99.90;;;;;;4954660;29;20850;-90
2021/10/19 02:54:44;;;;;;;36.80;30.08;;;14.50;99.90;;;;;;4955949;29;20504;-90
2021/10/19 02:57:11;;;;;;;40.77;32.43;;;14.50;99.90;;;;;;4956002;28;20217;-90
2021/10/19 02:59:38;;;;;;;39.13;30.92;;;14.50;99.90;;;;;;4955942;28;20259;-90
2021/10/19 03:02:05;;;;;;;43.40;32.00;;;14.50;99.90;;;;;;4955343;28;20228;-90
2021/10/19 03:04:33;;;;;;;41.80;32.37;;;14.50;99.90;;;;;;4958628;28;20216;-90
2021/10/19 03:07:00;;;;;;;36.37;29.27;;;14.60;99.90;;;;;;4960587;29;20308;-90
2021/10/19 03:09:27;;;;;;;35.80;30.67;;;14.60;99.90;;;;;;4961175;29;20205;-90
2021/10/19 03:11:54;;;;;;;36.92;30.13;;;14.50;99.90;;;;;;4959817;28;20221;-90
2021/10/19 03:14:21;;;;;;;40.47;32.45;;;14.50;99.90;;;;;;4956327;28;20213;-91
2021/10/19 03:16:48;;;;;;;43.15;33.08;;;14.50;99.90;;;;;;4955097;29;20231;-89
2021/10/19 03:19:15;;;;;;;39.10;31.20;;;14.50;99.90;;;;;;4955489;28;20228;-90
2021/10/19 03:21:44;;;;;;;43.47;33.47;;;14.50;99.90;;;;;;4955090;29;20213;-89
2021/10/19 03:24:11;;;;;;;37.10;30.83;;;14.60;99.90;;;;;;4954940;29;20215;-88
2021/10/19 03:26:37;;;;;;;43.05;33.85;;;14.60;99.90;;;;;;4954361;28;20211;-88
2021/10/19 03:29:04;;;;;;;39.72;30.98;;;14.60;99.90;;;;;;4954069;29;20201;-87
2021/10/19 03:31:35;;;;;;;43.60;34.60;;;14.60;99.90;;;;;;4955646;28;20197;-88
2021/10/19 03:34:02;;;;;;;42.70;32.13;;;14.60;99.90;;;;;;4954795;29;20280;-89
2021/10/19 03:36:28;;;;;;;39.75;29.63;;;14.60;99.90;;;;;;4971158;28;20251;-88
2021/10/19 03:38:57;;;;;;;42.78;33.35;;;14.60;99.90;;;;;;4969821;28;20224;-89
2021/10/19 03:41:24;;;;;;;41.28;31.63;;;14.60;99.90;;;;;;4954765;28;20329;-89
2021/10/19 03:43:51;;;;;;;38.97;31.90;;;14.70;99.90;;;;;;4953907;28;20214;-89
2021/10/19 03:46:17;;;;;;;38.28;31.13;;;14.70;99.90;;;;;;4954121;29;20212;-88
2021/10/19 03:48:44;;;;;;;41.05;32.63;;;14.70;99.90;;;;;;4955782;29;20245;-89
2021/10/19 03:51:11;;;;;;;38.95;32.83;;;14.70;99.90;;;;;;4955874;28;20582;-90
2021/10/19 03:53:38;;;;;;;39.38;31.40;;;14.70;99.90;;;;;;4954169;29;20215;-90
2021/10/19 03:56:06;;;;;;;38.08;30.42;;;14.70;99.90;;;;;;4954127;29;20205;-89
2021/10/19 03:58:33;;;;;;;38.30;30.77;;;14.70;99.90;;;;;;4953806;29;20240;-89
2021/10/19 04:01:00;;;;;;;34.40;28.45;;;14.70;99.90;;;;;;4964825;28;20231;-89
2021/10/19 04:03:27;;;;;;;32.22;27.55;;;14.80;99.90;;;;;;4973144;28;20205;-88
2021/10/19 04:05:54;;;;;;;32.55;27.95;;;14.70;99.90;;;;;;4972552;28;20231;-89
2021/10/19 04:08:21;;;;;;;32.70;27.70;;;14.70;99.90;;;;;;4961788;28;20209;-87
2021/10/19 04:10:48;;;;;;;32.60;26.80;;;14.70;99.90;;;;;;4953451;29;20475;-86
2021/10/19 04:13:16;;;;;;;34.70;28.58;;;14.80;99.90;;;;;;4951610;29;20842;-87
2021/10/19 04:15:43;;;;;;;30.13;25.60;;;14.70;99.90;;;;;;4953880;29;20209;-86
2021/10/19 04:18:10;;;;;;;29.00;24.85;;;14.80;99.90;;;;;;4966837;28;20208;-85
2021/10/19 04:20:37;;;;;;;31.08;26.90;;;14.70;99.90;;;;;;4972694;28;20211;-88
2021/10/19 04:23:03;;;;;;;31.75;27.48;;;14.80;99.90;;;;;;4972784;28;20355;-86
2021/10/19 04:25:30;;;;;;;29.35;25.20;;;14.80;99.90;;;;;;4972457;28;20216;-85
2021/10/19 04:27:57;;;;;;;32.97;26.63;;;14.80;99.90;;;;;;4952836;28;20220;-88
2021/10/19 04:30:26;;;;;;;29.20;25.20;;;14.80;99.90;;;;;;4953061;29;20273;-87
2021/10/19 04:32:52;;;;;;;30.43;26.00;;;14.80;99.90;;;;;;4952439;28;20209;-88
2021/10/19 04:35:19;;;;;;;30.48;25.38;;;14.80;99.90;;;;;;4953696;28;20209;-87
2021/10/19 04:37:46;;;;;;;27.25;23.55;;;14.90;99.90;;;;;;4953596;29;20498;-88
2021/10/19 04:40:14;;;;;;;29.58;24.75;;;14.90;99.90;;;;;;4952948;28;20565;-87
2021/10/19 04:42:40;;;;;;;26.10;23.30;;;14.90;99.90;;;;;;4954138;28;20193;-86
2021/10/19 04:45:09;;;;;;;28.27;22.85;;;14.90;99.90;;;;;;4952939;29;20208;-86
2021/10/19 04:47:37;;;;;;;27.17;23.77;;;14.90;99.90;;;;;;4953558;28;20264;-89
2021/10/19 04:50:05;;;;;;;28.02;23.08;;;14.90;99.90;;;;;;4953479;29;20209;-88
2021/10/19 04:52:32;;;;;;;26.73;22.40;;;14.90;99.90;;;;;;4953060;28;20205;-88
2021/10/19 04:54:59;;;;;;;24.83;21.92;;;14.90;99.90;;;;;;4957715;28;20256;-90
2021/10/19 04:57:25;;;;;;;23.77;20.92;;;14.90;99.90;;;;;;4972929;28;20205;-90
2021/10/19 04:59:52;;;;;;;23.88;20.75;;;14.90;99.90;;;;;;4972746;28;20527;-89
2021/10/19 05:02:19;;;;;;;26.55;21.77;;;14.90;99.90;;;;;;4972936;28;20245;-89
2021/10/19 05:04:47;;;;;;;23.17;20.55;;;14.90;99.90;;;;;;4963023;28;20232;-87
2021/10/19 05:07:14;;;;;;;24.50;21.08;;;15.00;99.90;;;;;;4953570;29;20204;-87
2021/10/19 05:09:41;;;;;;;26.08;21.23;;;14.90;99.90;;;;;;4953916;28;20517;-89
2021/10/19 05:12:08;;;;;;;26.40;22.40;;;15.00;99.90;;;;;;4962210;28;20602;-90
2021/10/19 05:14:35;;;;;;;25.88;22.13;;;15.00;99.90;;;;;;4975378;28;20216;-91
2021/10/19 05:17:02;;;;;;;25.52;21.77;;;15.00;99.90;;;;;;4977806;28;20205;-91
2021/10/19 05:19:29;;;;;;;26.33;21.77;;;15.00;99.90;;;;;;4977714;28;20224;-90
2021/10/19 05:21:57;;;;;;;24.20;20.55;;;15.00;99.90;;;;;;4976323;28;20201;-91
2021/10/19 05:24:24;;;;;;;28.17;22.50;;;15.00;99.90;;;;;;4976692;28;20219;-89
2021/10/19 05:26:51;;;;;;;26.23;21.58;;;15.00;99.90;;;;;;4975594;28;20204;-89
2021/10/19 05:29:18;;;;;;;25.27;21.10;;;15.10;99.90;;;;;;4975632;28;20216;-89
2021/10/19 05:31:45;;;;;;;24.77;21.00;;;15.00;99.90;;;;;;4976283;28;20201;-89
2021/10/19 05:34:12;;;;;;;20.48;17.95;;;15.00;99.90;;;;;;4976457;28;20205;-87
2021/10/19 05:36:39;;;;;;;23.33;19.80;;;15.00;99.90;;;;;;4965772;28;20397;-87
2021/10/19 05:39:07;;;;;;;22.00;19.30;;;15.00;99.90;;;;;;4955542;29;20644;-89
2021/10/19 05:41:34;;;;;;;21.80;18.45;;;15.10;99.90;;;;;;4955386;28;20216;-87
2021/10/19 05:44:01;;;;;;;21.40;18.95;;;15.10;99.90;;;;;;4956604;29;20212;-88
2021/10/19 05:46:28;;;;;;;22.67;20.13;;;15.10;99.90;;;;;;4955786;29;20212;-89
2021/10/19 05:48:56;;;;;;;21.73;19.00;;;15.10;99.90;;;;;;4956908;28;20241;-87
2021/10/19 05:51:24;;;;;;;21.65;17.70;;;15.10;99.90;;;;;;4956328;29;20201;-88
2021/10/19 05:53:51;;;;;;;21.92;18.50;;;15.10;99.90;;;;;;4956359;29;20206;-87
2021/10/19 05:56:19;;;;;;;20.63;17.75;;;15.10;99.90;;;;;;4956181;29;20205;-88
2021/10/19 05:58:46;;;;;;;22.90;17.67;;;15.20;99.90;;;;;;4970719;28;20212;-90
2021/10/19 06:01:13;;;;;;;21.77;18.60;;;15.20;99.90;;;;;;4975378;28;20205;-88
2021/10/19 06:03:39;;;;;;;24.38;20.38;;;15.20;99.90;;;;;;4975637;28;20597;-87
2021/10/19 06:06:09;;;;;;;24.67;18.90;;;15.30;99.90;;;;;;4974270;28;20232;-88
2021/10/19 06:08:36;;;;;;;23.20;18.35;;;15.30;99.90;;;;;;4975412;28;20205;-87
2021/10/19 06:11:03;;;;;;;24.60;18.92;;;15.30;99.90;;;;;;4958572;28;20209;-87
2021/10/19 06:13:31;;;;;;;26.77;20.83;;;15.30;99.90;;;;;;4958675;28;20208;-88
2021/10/19 06:15:58;;;;;;;30.58;19.95;;;15.30;99.90;;;;;;4974848;28;20208;-87
2021/10/19 06:18:25;;;;;;;31.67;21.88;;;15.40;99.90;;;;;;4971421;28;20205;-88
2021/10/19 06:20:53;;;;;;;29.02;20.70;;;15.40;99.90;;;;;;4970650;28;20781;-87
2021/10/19 06:23:22;;;;;;;29.83;21.57;;;15.40;99.90;;;;;;4958816;28;20287;-88
2021/10/19 06:25:49;;;;;;;29.65;22.02;;;15.40;99.90;;;;;;4972862;28;20266;-87
2021/10/19 06:28:16;;;;;;;32.92;22.17;;;15.40;99.90;;;;;;4974253;28;20212;-87
2021/10/19 06:30:44;;;;;;;30.67;21.48;;;15.40;99.90;;;;;;4975177;28;20205;-88
2021/10/19 06:33:11;;;;;;;32.03;22.13;;;15.40;99.90;;;;;;4974948;28;20293;-85
2021/10/19 06:35:40;;;;;;;28.25;20.05;;;15.40;99.90;;;;;;4976379;28;20201;-87
2021/10/19 06:38:07;;;;;;;23.15;18.73;;;15.50;99.90;;;;;;4975045;28;20208;-88
2021/10/19 06:40:34;;;;;;;30.17;20.65;;;15.50;99.90;;;;;;4975957;28;20279;-87
2021/10/19 06:43:03;;;;;;;25.67;18.48;;;15.50;99.90;;;;;;4958094;28;20216;-89
2021/10/19 06:45:30;;;;;;;29.38;20.58;;;15.50;99.90;;;;;;4955256;29;20237;-88
2021/10/19 06:47:58;;;;;;;26.48;19.33;;;15.50;99.90;;;;;;4951986;29;20252;-87
2021/10/19 06:50:25;;;;;;;33.25;21.92;;;15.50;99.90;;;;;;4956161;29;20234;-87
2021/10/19 06:52:52;;;;;;;30.95;21.55;;;15.60;99.90;;;;;;4954630;29;20205;-86
2021/10/19 06:55:22;;;;;;;31.17;21.88;;;15.60;99.90;;;;;;4961227;28;20225;-87
2021/10/19 06:57:49;;;;;;;30.80;21.13;;;15.70;99.90;;;;;;4974472;28;20210;-86
2021/10/19 07:00:17;;;;;;;30.00;21.63;;;15.70;99.90;;;;;;4974740;28;20236;-86
2021/10/19 07:02:44;;;;;;;30.50;20.70;;;15.70;99.90;;;;;;4967629;28;20206;-87
2021/10/19 07:05:13;;;;;;;31.92;21.23;;;15.70;99.90;;;;;;4954647;28;20229;-87
2021/10/19 07:07:41;;;;;;;30.55;20.38;;;15.70;99.90;;;;;;4952596;28;20201;-86
2021/10/19 07:10:09;;;;;;;25.23;18.73;;;15.80;99.90;;;;;;4951907;28;20212;-83
2021/10/19 07:12:38;;;;;;;26.48;18.50;;;15.80;99.90;;;;;;4952732;28;20197;-87
2021/10/19 07:15:06;;;;;;;26.98;17.83;;;15.80;99.90;;;;;;4953323;28;20217;-88
2021/10/19 07:17:33;;;;;;;26.35;19.02;;;15.80;99.90;;;;;;4956601;28;20234;-88
2021/10/19 07:20:00;;;;;;;24.88;18.35;;;15.90;99.90;;;;;;4971718;28;20640;-87
2021/10/19 07:22:31;;;;;;;25.05;18.20;;;15.90;99.90;;;;;;4971513;28;20208;-86
2021/10/19 07:24:57;;;;;;;23.95;18.13;;;15.90;99.90;;;;;;4970656;28;20209;-87
2021/10/19 07:27:24;;;;;;;23.67;16.58;;;15.90;99.90;;;;;;4951177;29;20217;-88
2021/10/19 07:29:51;;;;;;;23.33;16.50;;;16.00;99.90;;;;;;4951317;29;20235;-87
2021/10/19 07:35:44;;;;;;;18.85;15.32;;;16.10;99.90;;;;;;4937447;28;20213;-88
2021/10/19 07:38:14;;;;;;;18.13;14.52;;;16.10;99.90;;;;;;4951835;28;20216;-89
2021/10/19 07:40:41;;;;;;;18.50;14.45;;;16.10;99.90;;;;;;4952688;28;20240;-88
2021/10/19 07:43:08;;;;;;;17.38;14.20;;;16.10;99.90;;;;;;4953026;29;20204;-87
2021/10/19 07:45:35;;;;;;;15.07;13.27;;;16.10;99.90;;;;;;4953488;29;20209;-87
2021/10/19 07:48:02;;;;;;;16.77;14.05;;;16.20;99.90;;;;;;4956208;28;20473;-87
2021/10/19 07:50:30;;;;;;;18.48;14.80;;;16.20;99.90;;;;;;4971683;28;20201;-87
2021/10/19 07:53:00;;;;;;;16.52;14.70;;;16.20;99.90;;;;;;4965362;28;20205;-88
2021/10/19 07:55:32;;;;;;;20.50;14.40;;;16.20;99.90;;;;;;4962827;28;20207;-90
2021/10/19 07:57:59;;;;;;;17.40;13.50;;;16.20;99.90;;;;;;4961967;28;20541;-89
2021/10/19 08:00:29;;;;;;;15.80;13.35;;;16.20;99.90;;;;;;4963898;28;20240;-85
2021/10/19 08:02:58;;;;;;;16.60;13.35;;;16.30;99.90;;;;;;4962499;28;20220;-87
2021/10/19 08:05:26;;;;;;;17.15;14.20;;;16.30;99.90;;;;;;4951911;28;20237;-86
2021/10/19 08:08:04;;;;;;;14.70;13.15;;;16.40;99.90;;;;;;4958599;28;20886;-87
2021/10/19 08:10:33;;;;;;;14.27;12.60;;;16.40;99.90;;;;;;4951501;28;20684;-87
2021/10/19 08:13:00;;;;;;;13.43;10.85;;;16.50;99.90;;;;;;4952489;28;20264;-86
2021/10/19 08:15:27;;;;;;;14.68;12.48;;;16.50;99.90;;;;;;4955610;28;20221;-85
2021/10/19 08:17:54;;;;;;;12.32;11.10;;;16.50;99.90;;;;;;4963326;28;20204;-86
2021/10/19 08:20:20;;;;;;;13.77;10.73;;;16.50;99.90;;;;;;4959932;28;20237;-88
2021/10/19 08:22:47;;;;;;;11.10;9.85;;;16.50;99.90;;;;;;4965623;28;20208;-85
2021/10/19 08:25:14;;;;;;;9.85;8.48;;;16.50;99.90;;;;;;4950235;28;20209;-88
2021/10/19 08:27:45;;;;;;;9.25;8.32;;;16.60;99.90;;;;;;4962243;28;20213;-86
2021/10/19 08:30:14;;;;;;;9.20;8.30;;;16.60;99.90;;;;;;4950885;28;20214;-87
2021/10/19 08:32:42;;;;;;;8.60;7.72;;;16.70;99.90;;;;;;4960708;28;20748;-83
2021/10/19 08:35:10;;;;;;;7.25;6.55;;;16.70;99.90;;;;;;4957118;28;20350;-85
2021/10/19 08:37:37;;;;;;;7.60;6.88;;;16.70;99.90;;;;;;4957575;28;20212;-83
2021/10/19 08:40:05;;;;;;;7.57;6.88;;;16.70;99.90;;;;;;4954492;28;20239;-84
2021/10/19 08:42:32;;;;;;;8.32;5.90;;;16.70;99.90;;;;;;4966835;28;20238;-84
2021/10/19 08:45:02;;;;;;;6.18;5.68;;;16.80;99.90;;;;;;4949785;28;20209;-84
2021/10/19 08:47:29;;;;;;;5.88;5.28;;;16.80;99.90;;;;;;4952694;28;20245;-84
2021/10/19 08:49:55;;;;;;;5.70;5.20;;;16.90;99.90;;;;;;4964847;28;20259;-84
2021/10/19 08:52:22;;;;;;;6.18;5.57;;;16.80;99.90;;;;;;4963435;28;20213;-84
2021/10/19 08:54:49;;;;;;;6.25;5.65;;;16.90;99.90;;;;;;4955178;28;20202;-87
2021/10/19 08:57:18;;;;;;;6.45;5.00;;;16.90;99.90;;;;;;4953935;28;20908;-84
2021/10/19 08:59:48;;;;;;;5.55;4.97;;;16.90;99.90;;;;;;4959939;28;20216;-84
2021/10/19 09:02:17;;;;;;;5.70;5.20;;;16.90;99.90;;;;;;4962184;28;20224;-86
2021/10/19 09:04:44;;;;;;;6.20;5.60;;;16.90;99.90;;;;;;4953358;28;20276;-84
2021/10/19 09:07:11;;;;;;;6.05;5.45;;;16.90;99.90;;;;;;4952574;28;20202;-86
2021/10/19 09:09:39;;;;;;;6.78;6.07;;;16.90;99.90;;;;;;4955505;28;20220;-87
2021/10/19 09:12:07;;;;;;;6.97;6.28;;;16.90;99.90;;;;;;4955491;28;20221;-85
2021/10/19 09:14:37;;;;;;;9.52;7.88;;;16.90;99.90;;;;;;4955166;28;20212;-84
2021/10/19 09:17:05;;;;;;;11.35;8.57;;;16.90;99.90;;;;;;4952571;28;20348;-86
2021/10/19 09:19:35;;;;;;;15.10;9.95;;;17.00;99.90;;;;;;4963965;28;20693;-88
2021/10/19 09:22:04;;;;;;;14.18;10.50;;;17.00;99.90;;;;;;4952691;28;20296;-87
2021/10/19 09:24:33;;;;;;;14.50;11.35;;;17.00;99.90;;;;;;4951713;28;20209;-87
2021/10/19 09:27:01;;;;;;;19.08;13.65;;;17.00;99.90;;;;;;4954614;28;20216;-86
2021/10/19 09:29:30;;;;;;;19.02;13.75;;;17.00;99.90;;;;;;4956932;28;20234;-87
2021/10/19 09:32:01;;;;;;;20.02;13.95;;;17.10;99.90;;;;;;4965732;28;20228;-86
2021/10/19 09:34:29;;;;;;;18.70;13.98;;;17.10;99.90;;;;;;4959838;28;20209;-86
2021/10/19 09:37:00;;;;;;;22.02;14.05;;;17.10;99.90;;;;;;4960403;28;20209;-88
2021/10/19 09:39:35;;;;;;;17.63;13.60;;;17.10;99.90;;;;;;4962582;28;20197;-86
2021/10/19 09:42:04;;;;;;;17.70;13.77;;;17.10;99.90;;;;;;4950854;28;20260;-85
2021/10/19 09:44:31;;;;;;;19.17;12.68;;;17.10;99.90;;;;;;4958403;28;20217;-88
2021/10/19 09:47:00;;;;;;;21.00;14.73;;;17.20;99.90;;;;;;4960313;28;20212;-84
2021/10/19 09:49:28;;;;;;;21.48;15.82;;;17.10;99.90;;;;;;4956695;28;20719;-85
2021/10/19 09:51:57;;;;;;;25.85;16.70;;;17.10;99.90;;;;;;4949176;28;20209;-88
2021/10/19 09:54:29;;;;;;;27.17;17.50;;;17.10;99.90;;;;;;4963389;28;20209;-87
2021/10/19 09:56:58;;;;;;;29.48;17.70;;;17.10;99.90;;;;;;4959379;28;20260;-86
2021/10/19 09:59:26;;;;;;;25.25;16.80;;;17.10;99.90;;;;;;4963931;28;20220;-84
2021/10/19 10:01:54;;;;;;;24.83;16.88;;;17.10;99.90;;;;;;4967603;28;20568;-85
2021/10/19 10:04:21;;;;;;;26.30;15.90;;;17.20;99.90;;;;;;4962134;28;20214;-86
2021/10/19 10:06:49;;;;;;;27.83;17.45;;;17.20;99.90;;;;;;4962502;28;20216;-86
2021/10/19 10:09:17;;;;;;;26.80;16.52;;;17.20;99.90;;;;;;4955479;28;20268;-89
2021/10/19 10:11:45;;;;;;;24.42;16.52;;;17.20;99.90;;;;;;4962464;28;20228;-85
2021/10/19 10:14:14;;;;;;;24.75;16.67;;;17.30;99.90;;;;;;4961160;28;20212;-87
2021/10/19 10:16:47;;;;;;;29.73;16.42;;;17.30;99.90;;;;;;4960608;28;20212;-89
2021/10/19 10:19:15;;;;;;;25.88;15.48;;;17.30;99.90;;;;;;4950102;28;20264;-91
2021/10/19 10:21:51;;;;;;;25.35;15.65;;;17.30;99.90;;;;;;4965196;28;20232;-88
2021/10/19 10:24:28;;;;;;;27.48;14.95;;;17.40;99.90;;;;;;4960148;28;20303;-88
2021/10/19 10:27:12;;;;;;;19.95;13.90;;;17.40;99.90;;;;;;4954608;28;20208;-86
2021/10/19 10:29:42;;;;;;;21.48;14.57;;;17.40;99.90;;;;;;4966039;28;20240;-89
2021/10/19 10:32:23;;;;;;;19.25;13.25;;;17.50;99.90;;;;;;4956546;28;20212;-87
2021/10/19 10:35:00;;;;;;;18.88;12.68;;;17.50;99.90;;;;;;4961011;28;20216;-89
2021/10/19 10:37:36;;;;;;;20.70;12.45;;;17.50;99.90;;;;;;4966161;28;20212;-87
2021/10/19 10:40:04;;;;;;;19.83;13.18;;;17.50;99.90;;;;;;4963331;28;20584;-86
2021/10/19 10:42:36;;;;;;;18.17;11.38;;;17.50;99.90;;;;;;4967937;28;20212;-88
2021/10/19 10:45:05;;;;;;;16.88;11.15;;;17.50;99.90;;;;;;4958541;28;20217;-84
2021/10/19 10:47:32;;;;;;;18.77;12.07;;;17.60;99.90;;;;;;4952823;28;20620;-88
2021/10/19 10:49:59;;;;;;;18.30;11.23;;;17.50;99.90;;;;;;4960482;28;20217;-86
2021/10/19 10:52:28;;;;;;;17.38;10.43;;;17.60;99.90;;;;;;4960190;28;20193;-85
2021/10/19 10:54:57;;;;;;;17.33;10.13;;;17.60;99.90;;;;;;4964457;28;20201;-85
2021/10/19 10:57:24;;;;;;;13.40;9.98;;;17.60;99.90;;;;;;4969986;28;20228;-82
2021/10/19 10:59:57;;;;;;;18.27;10.93;;;17.70;99.90;;;;;;4957785;28;20665;-86
2021/10/19 11:02:26;;;;;;;15.02;11.30;;;17.70;99.90;;;;;;4959488;28;20653;-86
2021/10/19 11:04:55;;;;;;;18.00;11.55;;;17.70;99.90;;;;;;4959925;28;20244;-87
2021/10/19 11:07:30;;;;;;;16.77;11.70;;;17.70;99.90;;;;;;4956710;28;20215;-88
2021/10/19 11:09:57;;;;;;;18.75;10.93;;;17.70;99.90;;;;;;4968226;28;20424;-86
2021/10/19 11:12:24;;;;;;;17.83;10.93;;;17.70;99.90;;;;;;4968192;28;20584;-88
2021/10/19 11:14:51;;;;;;;17.77;10.43;;;17.70;99.90;;;;;;4956357;28;20213;-85
2021/10/19 11:17:26;;;;;;;15.65;9.65;;;17.70;99.90;;;;;;4955920;28;20208;-88
2021/10/19 11:19:55;;;;;;;15.43;9.20;;;17.70;99.90;;;;;;4960394;28;20208;-86
2021/10/19 11:22:22;;;;;;;15.80;9.80;;;17.70;99.90;;;;;;4958585;28;20248;-87
2021/10/19 11:24:50;;;;;;;15.20;10.70;;;17.70;99.90;;;;;;4958287;28;20276;-84
2021/10/19 11:27:24;;;;;;;14.77;10.90;;;17.70;99.90;;;;;;4954396;28;20216;-88
2021/10/19 11:29:51;;;;;;;14.95;11.43;;;17.70;99.90;;;;;;4959149;28;20223;-84
2021/10/19 11:32:19;;;;;;;17.90;11.30;;;17.70;99.90;;;;;;4939427;28;20229;-85
2021/10/19 11:34:48;;;;;;;17.48;11.35;;;17.70;99.90;;;;;;4963058;28;20263;-84
2021/10/19 11:37:14;;;;;;;21.98;11.13;;;17.70;99.90;;;;;;4961868;28;20220;-84
2021/10/19 11:39:41;;;;;;;18.50;11.68;;;17.70;99.90;;;;;;4951351;28;20700;-84
2021/10/19 11:42:08;;;;;;;22.88;11.80;;;17.60;99.90;;;;;;4952151;28;20545;-84
2021/10/19 11:44:36;;;;;;;23.48;13.02;;;17.70;99.90;;;;;;4961530;28;20754;-85
2021/10/19 11:47:04;;;;;;;32.33;14.30;;;17.60;99.90;;;;;;4952523;28;20213;-86
2021/10/19 11:49:32;;;;;;;32.17;13.10;;;17.70;99.90;;;;;;4959815;28;20216;-86
2021/10/19 11:52:01;;;;;;;29.02;13.77;;;17.70;99.90;;;;;;4966649;28;20208;-88
2021/10/19 11:54:31;;;;;;;27.83;14.38;;;17.70;99.90;;;;;;4968320;28;20231;-84
2021/10/19 11:57:00;;;;;;;24.98;13.55;;;17.70;99.90;;;;;;4954841;28;20569;-88
2021/10/19 11:59:27;;;;;;;29.48;15.05;;;17.60;99.90;;;;;;4938951;28;20721;-86
2021/10/19 12:02:00;;;;;;;23.38;12.93;;;17.70;99.90;;;;;;4956025;28;20232;-86
2021/10/19 12:04:31;;;;;;;26.50;13.35;;;17.70;99.90;;;;;;4958728;28;20216;-84
2021/10/19 12:06:57;;;;;;;24.80;13.48;;;17.60;99.90;;;;;;4958652;28;20304;-90
2021/10/19 12:09:26;;;;;;;29.85;14.52;;;17.70;99.90;;;;;;4952108;28;20212;-88
2021/10/19 12:11:55;;;;;;;31.70;13.68;;;17.60;99.90;;;;;;4958548;28;20212;-88
2021/10/19 12:14:29;;;;;;;31.38;14.15;;;17.70;99.90;;;;;;4955651;28;20209;-88
2021/10/19 12:16:58;;;;;;;24.42;13.30;;;17.70;99.90;;;;;;4957111;28;20205;-88
2021/10/19 12:19:25;;;;;;;25.00;13.13;;;17.70;99.90;;;;;;4961426;28;20263;-87
2021/10/19 12:21:53;;;;;;;30.42;14.20;;;17.70;99.90;;;;;;4953213;28;20227;-89
2021/10/19 12:24:20;;;;;;;31.98;14.27;;;17.70;99.90;;;;;;4957159;28;20261;-87
2021/10/19 12:26:59;;;;;;;34.75;14.25;;;17.70;99.90;;;;;;4957126;28;20201;-89
2021/10/19 12:29:31;;;;;;;23.17;13.27;;;17.80;99.90;;;;;;4968098;28;20217;-91
2021/10/19 12:31:58;;;;;;;29.23;13.98;;;17.80;99.90;;;;;;4961110;28;20594;-90
2021/10/19 12:34:26;;;;;;;40.40;15.55;;;17.90;99.90;;;;;;4961211;28;20213;-88